createdAt,value
2018-04-22T00:02:20.076Z,6.87
2018-04-22T00:04:48.548Z,7.73
2018-04-22T00:07:16.918Z,8.87
2018-04-22T00:09:45.324Z,6.70
2018-04-22T00:12:14.085Z,7.70
2018-04-22T00:14:42.454Z,7.20
2018-04-22T00:17:10.838Z,7.93
2018-04-22T00:19:39.211Z,7.70
2018-04-22T00:22:07.582Z,7.97
2018-04-22T00:24:35.977Z,8.87
2018-04-22T00:27:04.363Z,7.30
2018-04-22T00:29:32.718Z,7.17
2018-04-22T00:32:01.111Z,8.50
2018-04-22T00:34:29.473Z,7.50
2018-04-22T00:36:57.863Z,6.83
2018-04-22T00:39:26.251Z,6.80
2018-04-22T00:41:54.622Z,7.87
2018-04-22T00:44:22.994Z,7.50
2018-04-22T00:46:51.359Z,7.40
2018-04-22T00:49:19.718Z,7.50
2018-04-22T00:51:48.087Z,7.80
2018-04-22T00:54:22.246Z,8.43
2018-04-22T00:56:50.626Z,8.03
2018-04-22T00:59:18.976Z,7.57
2018-04-22T01:01:47.389Z,7.80
2018-04-22T01:04:15.761Z,7.53
2018-04-22T01:06:44.133Z,7.87
2018-04-22T01:09:12.487Z,7.10
2018-04-22T01:11:40.878Z,7.73
2018-04-22T01:14:09.247Z,7.93
2018-04-22T01:16:37.656Z,7.53
2018-04-22T01:19:06.006Z,7.37
2018-04-22T01:21:34.427Z,7.40
2018-04-22T01:24:06.264Z,7.30
2018-04-22T01:26:34.631Z,6.87
2018-04-22T01:29:03.034Z,8.07
2018-04-22T01:31:31.384Z,8.27
2018-04-22T01:34:00.265Z,8.33
2018-04-22T01:36:29.099Z,8.00
2018-04-22T01:38:57.451Z,8.40
2018-04-22T01:41:25.861Z,8.33
2018-04-22T01:43:54.211Z,8.07
2018-04-22T01:46:22.551Z,8.30
2018-04-22T01:48:50.995Z,7.70
2018-04-22T01:51:19.374Z,9.27
2018-04-22T01:53:47.741Z,8.60
2018-04-22T01:56:16.106Z,8.63
2018-04-22T01:58:44.458Z,8.83
2018-04-22T02:01:13.298Z,9.20
2018-04-22T02:03:41.646Z,8.83
2018-04-22T02:06:10.024Z,9.23
2018-04-22T02:08:38.409Z,8.50
2018-04-22T02:11:06.774Z,9.40
2018-04-22T02:13:35.133Z,8.50
2018-04-22T02:16:03.888Z,9.00
2018-04-22T02:18:32.266Z,9.47
2018-04-22T02:21:00.635Z,9.10
2018-04-22T02:23:29.035Z,9.10
2018-04-22T02:25:57.403Z,9.07
2018-04-22T02:28:25.763Z,9.20
2018-04-22T02:30:54.131Z,8.93
2018-04-22T02:33:22.533Z,9.60
2018-04-22T02:35:50.866Z,8.20
2018-04-22T02:38:19.243Z,10.00
2018-04-22T02:40:47.687Z,9.70
2018-04-22T02:43:16.159Z,8.97
2018-04-22T02:45:44.521Z,8.80
2018-04-22T02:48:12.872Z,8.97
2018-04-22T02:50:41.226Z,9.20
2018-04-22T02:53:09.977Z,8.90
2018-04-22T02:55:38.346Z,8.90
2018-04-22T02:58:06.701Z,10.23
2018-04-22T03:00:35.064Z,9.53
2018-04-22T03:03:03.482Z,9.30
2018-04-22T03:05:31.859Z,8.80
2018-04-22T03:08:00.238Z,9.27
2018-04-22T03:10:28.588Z,8.30
2018-04-22T03:12:56.979Z,9.37
2018-04-22T03:15:25.390Z,8.77
2018-04-22T03:17:53.749Z,8.13
2018-04-22T03:20:22.123Z,9.43
2018-04-22T03:22:50.501Z,10.20
2018-04-22T03:25:18.967Z,9.13
2018-04-22T03:27:47.333Z,8.53
2018-04-22T03:30:15.759Z,9.00
2018-04-22T03:32:44.134Z,8.80
2018-04-22T03:35:12.530Z,9.30
2018-04-22T03:37:40.861Z,9.20
2018-04-22T03:40:09.272Z,9.77
2018-04-22T03:42:37.644Z,9.47
2018-04-22T03:45:06.012Z,9.17
2018-04-22T03:47:34.488Z,9.13
2018-04-22T03:50:02.855Z,8.83
2018-04-22T03:52:31.227Z,9.00
2018-04-22T03:54:59.636Z,8.70
2018-04-22T03:57:28.015Z,8.23
2018-04-22T03:59:56.366Z,8.63
2018-04-22T04:02:24.721Z,9.80
2018-04-22T04:04:53.479Z,8.80
2018-04-22T04:07:21.831Z,9.63
2018-04-22T04:09:50.202Z,8.50
2018-04-22T04:12:18.554Z,8.83
2018-04-22T04:14:47.391Z,9.20
2018-04-22T04:17:15.760Z,9.03
2018-04-22T04:20:01.962Z,8.53
2018-04-22T04:22:42.026Z,7.53
2018-04-22T04:28:21.271Z,8.70
2018-04-22T04:30:49.640Z,8.80
2018-04-22T04:33:18.031Z,8.33
2018-04-22T04:35:46.388Z,7.80
2018-04-22T04:38:14.739Z,7.43
2018-04-22T04:40:43.502Z,7.60
2018-04-22T04:43:11.855Z,7.20
2018-04-22T04:45:40.233Z,7.30
2018-04-22T04:48:08.582Z,8.07
2018-04-22T04:50:36.938Z,7.07
2018-04-22T04:53:05.781Z,6.50
2018-04-22T04:55:34.144Z,6.43
2018-04-22T04:58:02.548Z,7.10
2018-04-22T05:00:30.905Z,6.67
2018-04-22T05:02:59.254Z,6.70
2018-04-22T05:05:28.031Z,6.00
2018-04-22T05:07:56.780Z,6.20
2018-04-22T05:10:25.258Z,5.80
2018-04-22T05:12:53.614Z,7.03
2018-04-22T05:15:21.970Z,6.50
2018-04-22T05:17:50.398Z,6.30
2018-04-22T05:20:18.766Z,6.80
2018-04-22T05:22:47.178Z,5.50
2018-04-22T05:25:15.940Z,6.37
2018-04-22T05:27:44.292Z,5.67
2018-04-22T05:30:12.642Z,5.67
2018-04-22T05:32:41.669Z,5.97
2018-04-22T05:35:10.043Z,6.07
2018-04-22T05:37:38.407Z,5.50
2018-04-22T05:40:06.831Z,5.73
2018-04-22T05:42:35.196Z,6.20
2018-04-22T05:45:03.545Z,5.60
2018-04-22T05:47:31.911Z,4.90
2018-04-22T05:50:00.675Z,5.33
2018-04-22T05:52:29.134Z,5.13
2018-04-22T05:54:57.528Z,5.43
2018-04-22T05:57:25.867Z,5.50
2018-04-22T05:59:54.243Z,5.40
2018-04-22T06:02:22.590Z,4.77
2018-04-22T06:04:51.335Z,4.77
2018-04-22T06:07:20.614Z,5.47
2018-04-22T06:09:48.973Z,5.17
2018-04-22T06:12:17.346Z,4.93
2018-04-22T06:14:46.102Z,5.30
2018-04-22T06:17:14.729Z,5.50
2018-04-22T06:19:43.100Z,5.17
2018-04-22T06:22:11.522Z,6.23
2018-04-22T06:24:39.881Z,5.40
2018-04-22T06:27:08.274Z,4.73
2018-04-22T06:29:36.634Z,5.13
2018-04-22T06:32:05.008Z,3.63
2018-04-22T06:34:33.362Z,4.50
2018-04-22T06:37:01.782Z,5.30
2018-04-22T06:39:30.148Z,4.40
2018-04-22T06:41:58.507Z,4.07
2018-04-22T06:44:26.927Z,5.07
2018-04-22T06:46:55.286Z,4.47
2018-04-22T06:49:23.661Z,4.57
2018-04-22T06:51:52.036Z,4.83
2018-04-22T06:54:20.446Z,4.50
2018-04-22T06:56:48.822Z,4.20
2018-04-22T06:59:17.179Z,4.63
2018-04-22T07:01:45.602Z,4.03
2018-04-22T07:04:14.074Z,4.60
2018-04-22T07:06:42.492Z,3.60
2018-04-22T07:09:11.240Z,3.67
2018-04-22T07:11:39.738Z,3.40
2018-04-22T07:14:08.196Z,3.50
2018-04-22T07:16:36.551Z,3.60
2018-04-22T07:19:04.895Z,3.50
2018-04-22T07:21:33.646Z,3.60
2018-04-22T07:24:02.040Z,3.23
2018-04-22T07:26:30.389Z,4.20
2018-04-22T07:28:58.749Z,4.27
2018-04-22T07:31:27.182Z,4.30
2018-04-22T07:33:55.541Z,4.03
2018-04-22T07:36:23.889Z,4.00
2018-04-22T07:38:52.254Z,4.60
2018-04-22T07:41:20.605Z,4.30
2018-04-22T07:43:49.339Z,4.00
2018-04-22T07:46:17.697Z,4.00
2018-04-22T07:48:46.046Z,4.10
2018-04-22T07:51:14.423Z,4.00
2018-04-22T07:53:42.767Z,4.17
2018-04-22T07:56:11.126Z,3.87
2018-04-22T07:58:39.474Z,3.40
2018-04-22T08:01:08.210Z,3.80
2018-04-22T08:03:36.586Z,3.60
2018-04-22T08:06:04.965Z,4.70
2018-04-22T08:08:33.339Z,4.40
2018-04-22T08:11:01.731Z,4.00
2018-04-22T08:13:30.083Z,4.60
2018-04-22T08:15:58.442Z,3.93
2018-04-22T08:18:26.806Z,4.10
2018-04-22T08:20:55.642Z,4.10
2018-04-22T08:23:23.986Z,4.30
2018-04-22T08:25:52.354Z,3.70
2018-04-22T08:28:21.170Z,4.00
2018-04-22T08:30:49.465Z,3.90
2018-04-22T08:33:17.886Z,4.73
2018-04-22T08:35:46.206Z,4.97
2018-04-22T08:38:14.585Z,4.00
2018-04-22T08:40:42.982Z,4.20
2018-04-22T08:43:11.339Z,3.53
2018-04-22T08:45:39.693Z,3.57
2018-04-22T08:48:08.113Z,4.50
2018-04-22T08:50:36.511Z,5.10
2018-04-22T08:53:04.979Z,5.23
2018-04-22T08:55:33.374Z,5.47
2018-04-22T08:58:01.753Z,5.20
2018-04-22T09:00:30.170Z,5.30
2018-04-22T09:02:58.909Z,5.83
2018-04-22T09:05:27.283Z,5.30
2018-04-22T09:07:55.632Z,6.13
2018-04-22T09:10:24.035Z,6.03
2018-04-22T09:12:52.410Z,5.67
2018-04-22T09:15:20.779Z,5.90
2018-04-22T09:17:49.171Z,5.63
2018-04-22T09:20:17.582Z,5.70
2018-04-22T09:22:46.450Z,5.07
2018-04-22T09:25:14.817Z,6.17
2018-04-22T09:27:43.206Z,5.60
2018-04-22T09:30:11.582Z,5.13
2018-04-22T09:32:39.926Z,6.23
2018-04-22T09:35:08.313Z,6.13
2018-04-22T09:37:36.736Z,5.97
2018-04-22T09:40:05.099Z,5.73
2018-04-22T09:42:33.476Z,5.10
2018-04-22T09:45:01.842Z,4.87
2018-04-22T09:47:30.241Z,4.27
2018-04-22T09:49:58.663Z,5.10
2018-04-22T09:52:27.497Z,4.80
2018-04-22T09:54:55.986Z,6.47
2018-04-22T09:57:24.368Z,6.10
2018-04-22T09:59:52.742Z,6.03
2018-04-22T10:02:38.794Z,5.93
2018-04-22T10:05:08.972Z,5.03
2018-04-22T10:07:37.448Z,4.50
2018-04-22T10:10:05.811Z,5.10
2018-04-22T10:12:34.217Z,5.50
2018-04-22T10:15:03.090Z,5.60
2018-04-22T10:17:31.467Z,5.70
2018-04-22T10:19:59.837Z,5.10
2018-04-22T10:22:28.229Z,4.77
2018-04-22T10:24:56.625Z,4.80
2018-04-22T10:27:25.098Z,5.60
2018-04-22T10:29:53.474Z,5.93
2018-04-22T10:32:21.905Z,5.90
2018-04-22T10:34:50.607Z,4.80
2018-04-22T10:37:18.961Z,4.10
2018-04-22T10:39:47.342Z,4.70
2018-04-22T10:42:15.708Z,3.70
2018-04-22T10:44:44.155Z,4.90
2018-04-22T10:47:12.527Z,4.43
2018-04-22T10:49:40.891Z,4.80
2018-04-22T10:52:09.254Z,4.83
2018-04-22T10:54:37.599Z,5.10
2018-04-22T10:57:05.964Z,4.13
2018-04-22T10:59:34.314Z,3.80
2018-04-22T11:02:02.733Z,4.90
2018-04-22T11:04:31.064Z,4.20
2018-04-22T11:06:59.464Z,3.90
2018-04-22T11:09:27.831Z,4.80
2018-04-22T11:11:56.187Z,6.00
2018-04-22T11:14:25.405Z,5.27
2018-04-22T11:16:53.785Z,5.60
2018-04-22T11:19:22.171Z,5.83
2018-04-22T11:21:50.551Z,6.03
2018-04-22T11:24:18.925Z,5.13
2018-04-22T11:26:47.318Z,5.50
2018-04-22T11:29:15.683Z,5.97
2018-04-22T11:31:44.043Z,5.93
2018-04-22T11:34:12.451Z,6.20
2018-04-22T11:36:40.821Z,6.73
2018-04-22T11:39:09.170Z,5.57
2018-04-22T11:41:37.534Z,5.47
2018-04-22T11:44:06.282Z,5.70
2018-04-22T11:46:34.666Z,5.43
2018-04-22T11:49:03.090Z,5.43
2018-04-22T11:51:31.451Z,6.10
2018-04-22T11:54:00.302Z,5.50
2018-04-22T11:56:28.674Z,5.93
2018-04-22T11:58:57.056Z,5.73
2018-04-22T12:01:25.403Z,5.80
2018-04-22T12:03:53.757Z,6.00
2018-04-22T12:06:22.518Z,5.93
2018-04-22T12:08:50.895Z,4.80
2018-04-22T12:11:19.267Z,5.20
2018-04-22T12:13:47.636Z,4.20
2018-04-22T12:16:15.980Z,4.17
2018-04-22T12:18:44.341Z,5.20
2018-04-22T12:21:13.093Z,4.50
2018-04-22T12:23:41.565Z,5.40
2018-04-22T12:26:09.918Z,4.77
2018-04-22T12:28:38.306Z,4.73
2018-04-22T12:31:06.699Z,5.20
2018-04-22T12:33:35.058Z,4.77
2018-04-22T12:36:03.458Z,5.40
2018-04-22T12:38:31.838Z,4.70
2018-04-22T12:41:00.189Z,4.03
2018-04-22T12:43:28.543Z,4.40
2018-04-22T12:45:57.281Z,4.27
2018-04-22T12:48:25.655Z,5.13
2018-04-22T12:50:54.014Z,4.00
2018-04-22T12:53:22.413Z,3.90
2018-04-22T12:55:50.772Z,4.60
2018-04-22T12:58:19.118Z,4.87
2018-04-22T13:00:47.886Z,4.30
2018-04-22T13:03:16.350Z,4.20
2018-04-22T13:05:44.701Z,4.17
2018-04-22T13:08:13.058Z,4.63
2018-04-22T13:10:41.450Z,4.37
2018-04-22T13:13:09.818Z,3.60
2018-04-22T13:15:38.191Z,4.13
2018-04-22T13:18:06.545Z,3.90
2018-04-22T13:20:35.094Z,4.27
2018-04-22T13:23:03.445Z,3.73
2018-04-22T13:25:31.826Z,3.43
2018-04-22T13:28:00.173Z,4.03
2018-04-22T13:30:28.913Z,3.90
2018-04-22T13:32:57.270Z,3.40
2018-04-22T13:35:25.630Z,3.13
2018-04-22T13:37:54.390Z,3.73
2018-04-22T13:40:22.842Z,6.90
2018-04-22T13:42:51.182Z,3.83
2018-04-22T13:45:19.546Z,4.13
2018-04-22T13:47:48.391Z,3.47
2018-04-22T13:50:16.869Z,3.83
2018-04-22T13:52:45.237Z,3.73
2018-04-22T13:55:13.627Z,3.20
2018-04-22T13:57:41.989Z,4.73
2018-04-22T14:00:10.386Z,3.20
2018-04-22T14:02:38.765Z,3.40
2018-04-22T14:05:07.112Z,3.60
2018-04-22T14:07:35.524Z,4.37
2018-04-22T14:10:03.889Z,5.30
2018-04-22T14:12:32.266Z,3.83
2018-04-22T14:15:00.650Z,4.43
2018-04-22T14:17:29.008Z,4.50
2018-04-22T14:19:57.373Z,4.17
2018-04-22T14:22:25.729Z,3.83
2018-04-22T14:24:54.483Z,3.50
2018-04-22T14:27:22.860Z,4.40
2018-04-22T14:29:51.244Z,3.60
2018-04-22T14:32:19.591Z,3.50
2018-04-22T14:34:47.944Z,3.70
2018-04-22T14:37:16.685Z,4.17
2018-04-22T14:39:45.054Z,3.70
2018-04-22T14:42:13.399Z,3.43
2018-04-22T14:44:59.554Z,4.00
2018-04-22T14:47:27.906Z,5.40
2018-04-22T14:49:56.269Z,13.60
2018-04-22T14:52:24.661Z,5.17
2018-04-22T14:54:53.106Z,4.30
2018-04-22T14:57:21.529Z,4.60
2018-04-22T14:59:49.911Z,4.13
2018-04-22T15:02:18.263Z,4.10
2018-04-22T15:04:46.673Z,3.87
2018-04-22T15:07:15.022Z,3.90
2018-04-22T15:09:43.389Z,4.77
2018-04-22T15:12:11.805Z,4.93
2018-04-22T15:14:40.180Z,4.47
2018-04-22T15:17:08.549Z,4.30
2018-04-22T15:19:36.915Z,3.83
2018-04-22T15:22:05.278Z,3.40
2018-04-22T15:24:33.694Z,3.77
2018-04-22T15:27:02.069Z,3.87
2018-04-22T15:31:56.726Z,4.53
2018-04-22T15:34:25.585Z,3.70
2018-04-22T15:36:53.932Z,3.77
2018-04-22T15:39:22.283Z,4.30
2018-04-22T15:41:51.029Z,4.53
2018-04-22T15:44:19.381Z,4.20
2018-04-22T15:46:47.751Z,3.83
2018-04-22T15:49:16.093Z,3.80
2018-04-22T15:51:44.947Z,7.10
2018-04-22T15:54:13.357Z,3.70
2018-04-22T15:56:41.720Z,4.40
2018-04-22T15:59:10.090Z,3.83
2018-04-22T16:01:38.474Z,3.77
2018-04-22T16:04:06.836Z,4.30
2018-04-22T16:06:35.185Z,4.47
2018-04-22T16:09:03.538Z,5.37
2018-04-22T16:11:31.904Z,3.90
2018-04-22T16:14:00.666Z,4.10
2018-04-22T16:16:29.038Z,3.77
2018-04-22T16:18:57.406Z,4.77
2018-04-22T16:21:25.751Z,4.13
2018-04-22T16:23:54.183Z,4.00
2018-04-22T16:26:22.552Z,4.63
2018-04-22T16:28:50.927Z,3.50
2018-04-22T16:31:19.297Z,4.43
2018-04-22T16:33:53.638Z,4.20
2018-04-22T16:36:22.117Z,4.63
2018-04-22T16:38:50.469Z,4.60
2018-04-22T16:41:18.809Z,4.70
2018-04-22T16:43:47.566Z,4.00
2018-04-22T16:46:15.906Z,4.27
2018-04-22T16:48:44.282Z,5.37
2018-04-22T16:51:12.634Z,4.80
2018-04-22T16:53:41.069Z,5.57
2018-04-22T16:56:09.425Z,4.50
2018-04-22T16:58:37.826Z,5.13
2018-04-22T17:01:06.199Z,5.07
2018-04-22T17:03:34.538Z,5.23
2018-04-22T17:06:03.280Z,5.90
2018-04-22T17:08:31.649Z,6.20
2018-04-22T17:11:00.002Z,5.83
2018-04-22T17:13:28.361Z,5.67
2018-04-22T17:15:57.191Z,5.37
2018-04-22T17:18:25.538Z,4.87
2018-04-22T17:20:53.946Z,5.13
2018-04-22T17:23:22.311Z,4.40
2018-04-22T17:25:50.714Z,5.90
2018-04-22T17:28:19.198Z,5.43
2018-04-22T17:30:47.565Z,5.70
2018-04-22T17:33:15.922Z,5.70
2018-04-22T17:35:45.090Z,5.27
2018-04-22T17:38:14.000Z,5.23
2018-04-22T17:40:42.410Z,5.83
2018-04-22T17:43:10.767Z,5.03
2018-04-22T17:45:39.181Z,5.40
2018-04-22T17:48:07.658Z,4.90
2018-04-22T17:50:36.039Z,5.77
2018-04-22T17:53:04.410Z,5.63
2018-04-22T17:55:32.763Z,5.70
2018-04-22T17:58:01.147Z,6.07
2018-04-22T18:00:29.542Z,5.47
2018-04-22T18:02:58.221Z,6.33
2018-04-22T18:05:26.590Z,5.40
2018-04-22T18:07:54.943Z,5.30
2018-04-22T18:10:23.861Z,5.60
2018-04-22T18:12:52.214Z,6.20
2018-04-22T18:15:21.057Z,6.30
2018-04-22T18:17:49.425Z,6.77
2018-04-22T18:20:17.778Z,5.60
2018-04-22T18:22:46.140Z,5.70
2018-04-22T18:25:14.490Z,5.50
2018-04-22T18:27:42.975Z,5.50
2018-04-22T18:30:11.344Z,6.10
2018-04-22T18:32:39.698Z,6.00
2018-04-22T18:35:08.039Z,6.03
2018-04-22T18:37:36.790Z,6.23
2018-04-22T18:40:05.249Z,9.37
2018-04-22T18:42:33.743Z,6.50
2018-04-22T18:45:02.095Z,6.93
2018-04-22T18:47:30.464Z,6.87
2018-04-22T18:49:58.866Z,6.23
2018-04-22T18:52:27.226Z,7.57
2018-04-22T18:54:55.602Z,8.30
2018-04-22T18:57:23.996Z,7.37
2018-04-22T18:59:52.390Z,7.50
2018-04-22T19:02:20.768Z,7.03
2018-04-22T19:04:49.122Z,6.70
2018-04-22T19:07:17.522Z,7.40
2018-04-22T19:09:45.878Z,7.23
2018-04-22T19:12:14.232Z,7.33
2018-04-22T19:14:42.984Z,8.23
2018-04-22T19:17:11.356Z,6.70
2018-04-22T19:19:39.830Z,8.10
2018-04-22T19:22:08.213Z,6.60
2018-04-22T19:24:36.567Z,7.50
2018-04-22T19:27:04.925Z,8.00
2018-04-22T19:29:33.275Z,7.60
2018-04-22T19:32:01.642Z,7.27
2018-04-22T19:34:29.990Z,7.30
2018-04-22T19:36:58.374Z,8.00
2018-04-22T19:39:26.742Z,7.37
2018-04-22T19:41:55.125Z,7.83
2018-04-22T19:44:23.512Z,8.00
2018-04-22T19:46:51.896Z,7.90
2018-04-22T19:49:20.315Z,7.77
2018-04-22T19:51:49.150Z,7.50
2018-04-22T19:54:17.507Z,7.10
2018-04-22T19:56:45.888Z,6.83
2018-04-22T19:59:14.230Z,7.80
2018-04-22T20:01:42.982Z,9.50
2018-04-22T20:04:11.360Z,9.40
2018-04-22T20:06:39.718Z,8.77
2018-04-22T20:09:08.088Z,8.27
2018-04-22T20:11:36.491Z,7.40
2018-04-22T20:14:04.875Z,7.53
2018-04-22T20:16:33.244Z,8.40
2018-04-22T20:19:01.647Z,7.90
2018-04-22T20:21:30.016Z,7.40
2018-04-22T20:23:58.378Z,7.47
2018-04-22T20:26:26.739Z,7.30
2018-04-22T20:28:55.098Z,6.93
2018-04-22T20:31:23.840Z,7.20
2018-04-22T20:33:52.322Z,7.43
2018-04-22T20:36:20.669Z,9.60
2018-04-22T20:38:49.065Z,10.23
2018-04-22T20:41:17.442Z,10.97
2018-04-22T20:43:45.814Z,11.67
2018-04-22T20:46:14.193Z,12.33
2018-04-22T20:48:42.588Z,11.50
2018-04-22T20:51:10.965Z,11.00
2018-04-22T20:53:39.389Z,9.67
2018-04-22T20:56:07.829Z,8.20
2018-04-22T20:58:36.206Z,8.77
2018-04-22T21:01:04.553Z,8.43
2018-04-22T21:03:32.912Z,7.80
2018-04-22T21:06:01.683Z,7.77
2018-04-22T21:08:30.543Z,7.60
2018-04-22T21:10:59.018Z,7.07
2018-04-22T21:13:27.474Z,6.87
2018-04-22T21:15:55.877Z,7.03
2018-04-22T21:18:24.250Z,12.40
2018-04-22T21:20:52.598Z,6.80
2018-04-22T21:23:21.035Z,6.70
2018-04-22T21:25:49.389Z,6.50
2018-04-22T21:28:17.766Z,6.27
2018-04-22T21:30:46.125Z,5.53
2018-04-22T21:33:14.535Z,6.70
2018-04-22T21:35:42.886Z,6.57
2018-04-22T21:38:11.269Z,7.17
2018-04-22T21:40:39.675Z,6.03
2018-04-22T21:43:08.021Z,6.20
2018-04-22T21:45:36.363Z,6.47
2018-04-22T21:48:04.807Z,6.53
2018-04-22T21:50:33.189Z,5.53
2018-04-22T21:53:01.569Z,5.23
2018-04-22T21:55:29.915Z,6.70
2018-04-22T21:57:58.339Z,5.60
2018-04-22T22:00:26.709Z,5.63
2018-04-22T22:02:55.088Z,5.63
2018-04-22T22:05:23.566Z,5.00
2018-04-22T22:07:51.933Z,4.73
2018-04-22T22:10:20.340Z,4.70
2018-04-22T22:12:48.729Z,4.80
2018-04-22T22:15:17.070Z,4.90
2018-04-22T22:17:45.456Z,4.03
2018-04-22T22:20:13.802Z,4.93
2018-04-22T22:22:42.154Z,4.50
2018-04-22T22:25:10.906Z,4.10
2018-04-22T22:27:39.268Z,4.33
2018-04-22T22:30:07.638Z,4.50
2018-04-22T22:32:36.043Z,4.40
2018-04-22T22:35:04.402Z,4.67
2018-04-22T22:37:32.795Z,3.77
2018-04-22T22:40:01.153Z,4.50
2018-04-22T22:42:29.557Z,4.90
2018-04-22T22:44:57.902Z,5.17
2018-04-22T22:47:26.255Z,4.40
2018-04-22T22:49:55.044Z,4.53
2018-04-22T22:52:23.877Z,4.40
2018-04-22T22:54:52.243Z,4.57
2018-04-22T22:57:20.649Z,5.30
2018-04-22T22:59:49.014Z,5.03
2018-04-22T23:02:17.398Z,4.47
2018-04-22T23:04:45.750Z,4.63
2018-04-22T23:07:14.157Z,5.17
2018-04-22T23:09:42.523Z,5.90
2018-04-22T23:12:10.874Z,5.67
2018-04-22T23:14:39.625Z,6.07
2018-04-22T23:17:07.974Z,5.27
2018-04-22T23:19:36.349Z,5.40
2018-04-22T23:22:04.706Z,6.10
2018-04-22T23:24:33.118Z,6.50
2018-04-22T23:27:01.494Z,5.93
2018-04-22T23:29:29.837Z,5.90
2018-04-22T23:31:58.222Z,6.47
2018-04-22T23:34:26.634Z,6.60
2018-04-22T23:36:55.006Z,6.57
2018-04-22T23:39:23.391Z,6.30
2018-04-22T23:41:51.773Z,7.10
2018-04-22T23:44:20.150Z,6.83
2018-04-22T23:46:48.498Z,6.07
2018-04-22T23:49:16.852Z,7.00
2018-04-22T23:51:45.649Z,6.93
2018-04-22T23:54:14.403Z,6.90
2018-04-22T23:56:42.858Z,6.70
2018-04-22T23:59:11.200Z,7.97
